Time;durP1;ratioP1;P1;durP2;ratioP2;P2;SDS_P1;SDS_P2;PMS_P1;PMS_P2;Temp;Humidity;BMP_temperature;BMP_pressure;BME280_temperature;BME280_humidity;BME280_pressure;Samples;Min_cycle;Max_cycle;Signal;HPM_P1;HPM_P2
2022/05/04 00:01:15;;;;;;;9.75;2.42;;;;;;;;;;4985823;28;20402;-64
2022/05/04 00:03:41;;;;;;;12.63;2.65;;;;;;;;;;4980699;28;20068;-64
2022/05/04 00:06:07;;;;;;;13.15;3.28;;;;;;;;;;4980045;28;20052;-64
2022/05/04 00:08:34;;;;;;;11.90;2.40;;;;;;;;;;4978389;28;20167;-64
2022/05/04 00:11:00;;;;;;;19.75;3.17;;;;;;;;;;4976959;28;20406;-64
2022/05/04 00:13:27;;;;;;;16.05;2.45;;;;;;;;;;4982015;28;20491;-64
2022/05/04 00:15:53;;;;;;;13.90;3.10;;;;;;;;;;4989374;28;20464;-64
2022/05/04 00:18:19;;;;;;;10.80;2.22;;;;;;;;;;4991043;28;20073;-64
2022/05/04 00:20:45;;;;;;;12.32;2.97;;;;;;;;;;4976159;28;20112;-64
2022/05/04 00:23:12;;;;;;;13.35;2.88;;;;;;;;;;4978058;28;20049;-64
2022/05/04 00:25:38;;;;;;;18.05;2.95;;;;;;;;;;4985614;28;20050;-64
2022/05/04 00:28:04;;;;;;;16.65;2.85;;;;;;;;;;5001338;28;20034;-64
2022/05/04 00:30:31;;;;;;;10.90;2.50;;;;;;;;;;4981033;28;20050;-64
2022/05/04 00:32:58;;;;;;;13.30;3.72;;;;;;;;;;4995099;28;20126;-64
2022/05/04 00:35:24;;;;;;;12.73;3.15;;;;;;;;;;4986766;28;20046;-64
2022/05/04 00:37:50;;;;;;;9.05;2.47;;;;;;;;;;4993134;28;20093;-64
2022/05/04 00:40:16;;;;;;;11.85;2.58;;;;;;;;;;4987576;28;20470;-64
2022/05/04 00:42:43;;;;;;;11.55;2.70;;;;;;;;;;5000281;28;20105;-64
2022/05/04 00:45:09;;;;;;;11.27;3.10;;;;;;;;;;5000620;28;20042;-64
2022/05/04 00:47:35;;;;;;;12.82;2.88;;;;;;;;;;4995439;28;20105;-64
2022/05/04 00:50:04;;;;;;;10.07;2.60;;;;;;;;;;4992989;28;20050;-64
2022/05/04 00:52:34;;;;;;;10.38;2.70;;;;;;;;;;4986917;28;20081;-64
2022/05/04 00:55:01;;;;;;;8.95;2.33;;;;;;;;;;4992462;28;20100;-64
2022/05/04 01:00:13;;;;;;;10.80;3.40;;;;;;;;;;4984293;28;20495;-64
2022/05/04 01:02:40;;;;;;;13.32;2.65;;;;;;;;;;4998818;28;20041;-64
2022/05/04 01:05:09;;;;;;;11.32;3.10;;;;;;;;;;4983871;28;20038;-64
2022/05/04 01:07:36;;;;;;;13.45;2.83;;;;;;;;;;4998357;28;20623;-64
2022/05/04 01:10:04;;;;;;;17.02;2.80;;;;;;;;;;4985162;28;20429;-64
2022/05/04 01:12:30;;;;;;;12.20;2.60;;;;;;;;;;4989265;28;20042;-64
2022/05/04 01:14:56;;;;;;;10.95;2.75;;;;;;;;;;4991996;28;20129;-64
2022/05/04 01:17:22;;;;;;;12.60;2.80;;;;;;;;;;4978907;28;20058;-64
2022/05/04 01:19:48;;;;;;;15.73;3.17;;;;;;;;;;4976716;28;20137;-64
2022/05/04 01:22:14;;;;;;;12.63;2.83;;;;;;;;;;4984406;28;20074;-64
2022/05/04 01:24:41;;;;;;;15.43;2.88;;;;;;;;;;4994962;28;20071;-64
2022/05/04 01:27:13;;;;;;;13.23;2.67;;;;;;;;;;4994182;28;20043;-64
2022/05/04 01:29:39;;;;;;;12.55;2.20;;;;;;;;;;4985919;28;20069;-63
2022/05/04 01:32:05;;;;;;;12.90;2.55;;;;;;;;;;4973823;28;20101;-64
2022/05/04 01:34:32;;;;;;;8.77;2.10;;;;;;;;;;4981309;28;20470;-64
2022/05/04 01:36:58;;;;;;;10.02;2.60;;;;;;;;;;4992757;28;20046;-64
2022/05/04 01:39:24;;;;;;;11.43;2.53;;;;;;;;;;4993221;28;20046;-64
2022/05/04 01:42:03;;;;;;;9.93;2.58;;;;;;;;;;4982427;28;20594;-64
2022/05/04 01:44:31;;;;;;;11.00;2.72;;;;;;;;;;4990945;28;20073;-64
2022/05/04 01:46:57;;;;;;;11.10;2.40;;;;;;;;;;4976888;28;20049;-64
2022/05/04 01:49:23;;;;;;;13.07;3.25;;;;;;;;;;4999221;28;20145;-64
2022/05/04 01:51:49;;;;;;;13.65;3.38;;;;;;;;;;4985806;28;20046;-64
2022/05/04 01:54:16;;;;;;;11.25;2.42;;;;;;;;;;4992945;28;20042;-64
2022/05/04 01:56:42;;;;;;;13.25;3.65;;;;;;;;;;4997665;28;20482;-64
2022/05/04 01:59:08;;;;;;;12.77;2.83;;;;;;;;;;4993758;28;20047;-64
2022/05/04 02:01:34;;;;;;;10.23;2.60;;;;;;;;;;4992837;28;20042;-64
2022/05/04 02:04:01;;;;;;;12.00;2.83;;;;;;;;;;4991623;28;20046;-64
2022/05/04 02:06:27;;;;;;;18.25;3.53;;;;;;;;;;4984857;28;20045;-64
2022/05/04 02:08:53;;;;;;;9.00;2.70;;;;;;;;;;5001681;28;20056;-64
2022/05/04 02:11:20;;;;;;;11.70;3.35;;;;;;;;;;4999151;28;20054;-64
2022/05/04 02:13:46;;;;;;;16.58;3.15;;;;;;;;;;4999805;28;20043;-64
2022/05/04 02:16:12;;;;;;;16.05;3.88;;;;;;;;;;5003802;28;20097;-64
2022/05/04 02:18:38;;;;;;;16.20;3.03;;;;;;;;;;4983370;28;20053;-64
2022/05/04 02:21:04;;;;;;;11.60;2.95;;;;;;;;;;4989284;28;20077;-64
2022/05/04 02:23:30;;;;;;;13.15;2.88;;;;;;;;;;4985455;28;20148;-64
2022/05/04 02:25:56;;;;;;;11.52;3.17;;;;;;;;;;4982724;28;20111;-64
2022/05/04 02:28:23;;;;;;;14.88;2.92;;;;;;;;;;4995100;28;20058;-64
2022/05/04 02:30:49;;;;;;;10.80;2.80;;;;;;;;;;4986496;28;20057;-64
2022/05/04 02:33:15;;;;;;;11.02;2.53;;;;;;;;;;5018567;28;20402;-64
2022/05/04 02:38:27;;;;;;;10.93;2.80;;;;;;;;;;5012992;28;20053;-64
2022/05/04 02:40:53;;;;;;;11.27;2.83;;;;;;;;;;5009025;28;20096;-64
2022/05/04 02:43:19;;;;;;;18.55;3.55;;;;;;;;;;5020047;28;20153;-64
2022/05/04 02:45:46;;;;;;;9.23;2.22;;;;;;;;;;5018194;28;20065;-64
2022/05/04 02:48:12;;;;;;;12.20;2.88;;;;;;;;;;5000718;28;20049;-64
2022/05/04 02:50:38;;;;;;;16.05;3.15;;;;;;;;;;4993093;28;20046;-64
2022/05/04 02:53:05;;;;;;;11.82;2.80;;;;;;;;;;5010975;28;20037;-64
2022/05/04 02:55:31;;;;;;;17.08;3.72;;;;;;;;;;5013575;28;20547;-64
2022/05/04 02:57:58;;;;;;;13.52;3.05;;;;;;;;;;5024259;28;20045;-64
2022/05/04 03:00:25;;;;;;;14.48;2.30;;;;;;;;;;5013795;28;20117;-64
2022/05/04 03:02:51;;;;;;;13.48;2.38;;;;;;;;;;5002835;28;21672;-64
2022/05/04 03:05:18;;;;;;;7.15;2.03;;;;;;;;;;5021951;28;20053;-64
2022/05/04 03:07:44;;;;;;;10.95;2.63;;;;;;;;;;5007590;28;20056;-64
2022/05/04 03:10:11;;;;;;;25.85;3.47;;;;;;;;;;5011416;28;20100;-64
2022/05/04 03:12:37;;;;;;;13.07;2.50;;;;;;;;;;5012696;28;20041;-64
2022/05/04 03:15:04;;;;;;;12.77;2.60;;;;;;;;;;5010850;28;20042;-64
2022/05/04 03:17:30;;;;;;;9.02;2.58;;;;;;;;;;5005285;28;20076;-64
2022/05/04 03:19:58;;;;;;;15.95;3.28;;;;;;;;;;5003456;28;20041;-64
2022/05/04 03:22:25;;;;;;;14.10;2.80;;;;;;;;;;5007016;28;20118;-64
2022/05/04 03:24:51;;;;;;;14.75;3.42;;;;;;;;;;5008404;28;20041;-64
2022/05/04 03:27:17;;;;;;;14.25;2.60;;;;;;;;;;5008889;28;20068;-64
2022/05/04 03:29:44;;;;;;;13.05;2.70;;;;;;;;;;5000861;28;20736;-64
2022/05/04 03:32:10;;;;;;;12.98;2.67;;;;;;;;;;5012516;28;20053;-64
2022/05/04 03:34:37;;;;;;;10.35;2.95;;;;;;;;;;5019091;28;20105;-64
2022/05/04 03:37:03;;;;;;;7.20;2.72;;;;;;;;;;5020589;28;20049;-64
2022/05/04 03:39:30;;;;;;;8.25;2.40;;;;;;;;;;5014328;28;20397;-64
2022/05/04 03:41:56;;;;;;;10.27;2.97;;;;;;;;;;4987174;28;20865;-64
2022/05/04 03:44:23;;;;;;;11.90;3.10;;;;;;;;;;5015302;28;21503;-63
2022/05/04 03:46:50;;;;;;;14.75;2.70;;;;;;;;;;4985846;28;20045;-64
2022/05/04 03:49:17;;;;;;;10.98;2.63;;;;;;;;;;5020042;28;20159;-64
2022/05/04 03:51:43;;;;;;;9.20;1.90;;;;;;;;;;5003137;28;20045;-64
2022/05/04 03:54:10;;;;;;;8.90;2.20;;;;;;;;;;5011735;28;20088;-64
2022/05/04 03:56:37;;;;;;;9.60;2.75;;;;;;;;;;5018082;28;20042;-64
2022/05/04 03:59:04;;;;;;;12.35;2.80;;;;;;;;;;4995596;28;20050;-64
2022/05/04 04:01:30;;;;;;;7.30;2.38;;;;;;;;;;5019161;28;20082;-63
2022/05/04 04:03:56;;;;;;;8.63;1.88;;;;;;;;;;5013533;28;20070;-64
2022/05/04 04:06:23;;;;;;;8.00;2.45;;;;;;;;;;5013420;28;20092;-64
2022/05/04 04:08:50;;;;;;;10.15;1.98;;;;;;;;;;5010253;28;20054;-64
2022/05/04 04:11:16;;;;;;;5.70;1.90;;;;;;;;;;5005587;28;20058;-64
2022/05/04 04:13:43;;;;;;;10.73;2.08;;;;;;;;;;5011579;28;20684;-64
2022/05/04 04:16:09;;;;;;;8.90;2.03;;;;;;;;;;5005950;28;20041;-64
2022/05/04 04:18:35;;;;;;;8.32;2.30;;;;;;;;;;5012945;28;20161;-64
2022/05/04 04:23:46;;;;;;;6.43;1.77;;;;;;;;;;5012497;28;20466;-64
2022/05/04 04:26:12;;;;;;;8.88;2.00;;;;;;;;;;5013821;28;20092;-64
2022/05/04 04:28:39;;;;;;;9.48;2.00;;;;;;;;;;5014677;28;20123;-64
2022/05/04 04:31:09;;;;;;;10.32;2.10;;;;;;;;;;5012940;28;20057;-64
2022/05/04 04:33:35;;;;;;;13.07;2.15;;;;;;;;;;5015097;28;20056;-64
2022/05/04 04:36:02;;;;;;;11.50;2.20;;;;;;;;;;5012243;28;20046;-64
2022/05/04 04:38:28;;;;;;;14.05;2.85;;;;;;;;;;5010371;28;20045;-64
2022/05/04 04:40:54;;;;;;;10.63;2.40;;;;;;;;;;5004567;28;20090;-64
2022/05/04 04:43:20;;;;;;;11.95;2.40;;;;;;;;;;5011430;28;20041;-63
2022/05/04 04:45:47;;;;;;;11.43;2.25;;;;;;;;;;5010974;28;20360;-64
2022/05/04 04:48:21;;;;;;;5.95;2.17;;;;;;;;;;5013653;28;20057;-64
2022/05/04 04:50:48;;;;;;;11.52;2.67;;;;;;;;;;5017331;28;20199;-64
2022/05/04 04:53:14;;;;;;;9.50;2.22;;;;;;;;;;5010080;28;20094;-64
2022/05/04 04:55:42;;;;;;;16.15;2.50;;;;;;;;;;5009151;28;20045;-64
2022/05/04 04:58:08;;;;;;;5.63;1.63;;;;;;;;;;5014831;28;20048;-64
2022/05/04 05:00:35;;;;;;;10.82;2.28;;;;;;;;;;5015147;28;20099;-64
2022/05/04 05:03:01;;;;;;;11.55;2.28;;;;;;;;;;5012675;28;20069;-64
2022/05/04 05:05:27;;;;;;;6.97;2.15;;;;;;;;;;5000539;28;20062;-64
2022/05/04 05:07:53;;;;;;;7.88;1.77;;;;;;;;;;5017318;28;20034;-64
2022/05/04 05:10:19;;;;;;;13.07;2.03;;;;;;;;;;5009426;28;20137;-64
2022/05/04 05:12:45;;;;;;;11.30;2.22;;;;;;;;;;5014395;28;20042;-63
2022/05/04 05:17:56;;;;;;;12.55;2.13;;;;;;;;;;5006507;28;20057;-64
2022/05/04 05:20:22;;;;;;;12.30;3.45;;;;;;;;;;4997305;28;20147;-64
2022/05/04 05:22:49;;;;;;;11.05;2.60;;;;;;;;;;4998498;28;20045;-64
2022/05/04 05:25:15;;;;;;;15.27;2.85;;;;;;;;;;5010762;28;20223;-64
2022/05/04 05:27:41;;;;;;;9.40;2.00;;;;;;;;;;5012497;28;20434;-64
2022/05/04 05:30:07;;;;;;;7.82;2.45;;;;;;;;;;5005344;28;20471;-64
2022/05/04 05:32:34;;;;;;;7.90;1.83;;;;;;;;;;5008705;28;20042;-64
2022/05/04 05:35:00;;;;;;;14.00;2.55;;;;;;;;;;5013544;28;20050;-64
2022/05/04 05:37:26;;;;;;;9.88;2.25;;;;;;;;;;5015829;28;20041;-64
2022/05/04 05:39:52;;;;;;;8.25;2.70;;;;;;;;;;5003526;28;20521;-64
2022/05/04 05:42:18;;;;;;;9.65;2.08;;;;;;;;;;5010517;28;20048;-64
2022/05/04 05:44:44;;;;;;;14.57;2.67;;;;;;;;;;5013810;28;20038;-64
2022/05/04 05:47:11;;;;;;;9.63;2.45;;;;;;;;;;5014026;28;20052;-63
2022/05/04 05:49:37;;;;;;;12.20;2.47;;;;;;;;;;5021595;28;20087;-64
2022/05/04 05:52:04;;;;;;;9.63;2.42;;;;;;;;;;5016786;28;20045;-63
2022/05/04 05:54:31;;;;;;;9.30;1.95;;;;;;;;;;5005639;28;20041;-63
2022/05/04 05:56:58;;;;;;;10.07;1.90;;;;;;;;;;5017788;28;20081;-65
2022/05/04 05:59:24;;;;;;;11.63;1.98;;;;;;;;;;5006724;28;20049;-64
2022/05/04 06:01:50;;;;;;;7.68;2.10;;;;;;;;;;5007346;28;20064;-64
2022/05/04 06:04:16;;;;;;;11.60;2.13;;;;;;;;;;5007238;28;20068;-64
2022/05/04 06:06:42;;;;;;;11.55;1.83;;;;;;;;;;5010080;28;20046;-65
2022/05/04 06:09:08;;;;;;;8.60;2.38;;;;;;;;;;5007394;28;20136;-64
2022/05/04 06:11:35;;;;;;;8.05;1.90;;;;;;;;;;5017506;28;20516;-63
2022/05/04 06:14:02;;;;;;;12.95;2.05;;;;;;;;;;5013814;28;20057;-64
2022/05/04 06:16:28;;;;;;;10.48;2.10;;;;;;;;;;5002352;28;20057;-64
2022/05/04 06:18:54;;;;;;;14.75;2.50;;;;;;;;;;5021035;28;20064;-64
2022/05/04 06:21:20;;;;;;;9.65;1.65;;;;;;;;;;5010151;28;21791;-63
2022/05/04 06:23:46;;;;;;;8.43;2.15;;;;;;;;;;5021580;28;20062;-64
2022/05/04 06:26:13;;;;;;;13.80;1.92;;;;;;;;;;5003619;28;20052;-64
2022/05/04 06:28:39;;;;;;;8.93;1.80;;;;;;;;;;5010673;28;20045;-64
2022/05/04 06:34:06;;;;;;;9.50;2.58;;;;;;;;;;5020592;28;20049;-63
2022/05/04 06:36:33;;;;;;;8.70;2.03;;;;;;;;;;5013258;28;20613;-64
2022/05/04 06:38:59;;;;;;;10.55;2.55;;;;;;;;;;5018011;28;20417;-63
2022/05/04 06:41:25;;;;;;;9.60;1.95;;;;;;;;;;5021168;28;20049;-64
2022/05/04 06:43:52;;;;;;;13.65;2.55;;;;;;;;;;5001671;28;20111;-64
2022/05/04 06:46:18;;;;;;;7.97;2.00;;;;;;;;;;5022007;28;20623;-64
2022/05/04 06:48:45;;;;;;;12.30;2.33;;;;;;;;;;5016639;28;20053;-64
2022/05/04 06:51:12;;;;;;;9.98;3.00;;;;;;;;;;5017082;28;20401;-63
2022/05/04 06:53:38;;;;;;;8.32;2.20;;;;;;;;;;5021114;28;20061;-75
2022/05/04 06:56:04;;;;;;;8.63;1.92;;;;;;;;;;5022715;28;20078;-61
2022/05/04 06:58:30;;;;;;;11.23;2.30;;;;;;;;;;5020080;28;20037;-63
2022/05/04 07:00:57;;;;;;;10.68;2.05;;;;;;;;;;5005799;28;20165;-63
2022/05/04 07:03:23;;;;;;;8.88;2.35;;;;;;;;;;5019334;28;20049;-63
2022/05/04 07:05:50;;;;;;;8.55;2.30;;;;;;;;;;4999097;28;20052;-63
2022/05/04 07:08:17;;;;;;;8.00;2.10;;;;;;;;;;5025129;28;20076;-63
2022/05/04 07:10:43;;;;;;;15.88;2.17;;;;;;;;;;5023388;28;20048;-63
2022/05/04 07:13:09;;;;;;;11.73;2.15;;;;;;;;;;5013865;28;20045;-63
2022/05/04 07:15:35;;;;;;;11.25;2.20;;;;;;;;;;5017537;28;20048;-62
2022/05/04 07:18:02;;;;;;;11.82;2.60;;;;;;;;;;5011959;28;20038;-63
2022/05/04 07:20:28;;;;;;;7.03;2.25;;;;;;;;;;5013243;28;20046;-63
2022/05/04 07:22:54;;;;;;;7.63;2.65;;;;;;;;;;5001765;28;20050;-63
2022/05/04 07:25:20;;;;;;;7.97;1.88;;;;;;;;;;5002452;28;20045;-62
2022/05/04 07:27:47;;;;;;;10.95;2.25;;;;;;;;;;5028897;28;20037;-63
2022/05/04 07:30:13;;;;;;;13.02;2.25;;;;;;;;;;5023559;28;20041;-63
2022/05/04 07:32:39;;;;;;;9.02;2.08;;;;;;;;;;5029661;28;20088;-63
2022/05/04 07:35:08;;;;;;;12.40;3.42;;;;;;;;;;5001320;28;20434;-63
2022/05/04 07:37:34;;;;;;;7.05;1.70;;;;;;;;;;5013625;28;20048;-63
2022/05/04 07:42:45;;;;;;;12.15;2.30;;;;;;;;;;5008478;28;20046;-63
2022/05/04 07:45:13;;;;;;;12.32;2.58;;;;;;;;;;5025702;28;20049;-63
2022/05/04 07:47:40;;;;;;;10.10;2.15;;;;;;;;;;5024061;28;20053;-64
2022/05/04 07:50:07;;;;;;;15.82;2.97;;;;;;;;;;5018813;28;20057;-63
2022/05/04 07:52:34;;;;;;;9.20;2.33;;;;;;;;;;5008088;28;20097;-64
2022/05/04 07:55:00;;;;;;;9.57;2.45;;;;;;;;;;5015605;28;20113;-64
2022/05/04 07:57:26;;;;;;;9.30;2.30;;;;;;;;;;5002805;28;20045;-64
2022/05/04 08:05:24;;;;;;;11.70;2.83;;;;;;;;;;5018477;28;20042;-64
2022/05/04 08:07:50;;;;;;;13.50;2.53;;;;;;;;;;5021155;28;20056;-64
2022/05/04 08:10:16;;;;;;;8.90;2.33;;;;;;;;;;5019349;28;20124;-64
2022/05/04 08:12:43;;;;;;;11.93;2.28;;;;;;;;;;5020564;28;20455;-64
2022/05/04 08:15:09;;;;;;;9.52;2.35;;;;;;;;;;5016821;28;20248;-63
2022/05/04 08:17:35;;;;;;;9.27;2.25;;;;;;;;;;5018088;28;20069;-63
2022/05/04 08:20:01;;;;;;;13.15;2.35;;;;;;;;;;5005334;28;20053;-64
2022/05/04 08:22:27;;;;;;;11.82;2.40;;;;;;;;;;5001803;28;20046;-64
2022/05/04 08:24:54;;;;;;;10.18;2.08;;;;;;;;;;5017673;28;20125;-64
2022/05/04 08:27:20;;;;;;;7.82;2.33;;;;;;;;;;5017822;28;20072;-64
2022/05/04 08:29:46;;;;;;;16.75;2.78;;;;;;;;;;5001331;28;20048;-65
2022/05/04 08:32:13;;;;;;;11.60;3.08;;;;;;;;;;5022619;28;20137;-64
2022/05/04 08:34:39;;;;;;;7.47;1.92;;;;;;;;;;5017950;28;20068;-64
2022/05/04 08:37:06;;;;;;;8.95;2.10;;;;;;;;;;5020355;28;20128;-64
2022/05/04 08:39:32;;;;;;;9.80;2.47;;;;;;;;;;5025274;28;20423;-64
2022/05/04 08:42:00;;;;;;;10.18;2.38;;;;;;;;;;5016743;28;20480;-66
2022/05/04 08:44:26;;;;;;;14.70;2.35;;;;;;;;;;5012535;28;20046;-67
2022/05/04 08:46:53;;;;;;;8.98;2.00;;;;;;;;;;5022987;28;20050;-66
2022/05/04 08:49:19;;;;;;;7.97;1.88;;;;;;;;;;5006815;28;20346;-67
2022/05/04 08:51:48;;;;;;;10.95;2.38;;;;;;;;;;5000067;28;20048;-66
2022/05/04 08:54:15;;;;;;;8.82;2.30;;;;;;;;;;5017869;28;20076;-66
2022/05/04 08:56:41;;;;;;;8.02;1.98;;;;;;;;;;5015967;28;20455;-64
2022/05/04 08:59:07;;;;;;;10.65;2.10;;;;;;;;;;5014377;28;20038;-64
2022/05/04 09:01:37;;;;;;;9.65;2.35;;;;;;;;;;5015851;28;20095;-64
2022/05/04 09:04:04;;;;;;;11.85;1.98;;;;;;;;;;5013778;28;20481;-64
2022/05/04 09:06:32;;;;;;;10.85;3.22;;;;;;;;;;5019001;28;20069;-64
2022/05/04 09:09:03;;;;;;;14.07;2.00;;;;;;;;;;5017295;28;20067;-64
2022/05/04 09:11:29;;;;;;;8.93;2.35;;;;;;;;;;5013080;28;20497;-64
2022/05/04 09:13:55;;;;;;;16.00;2.60;;;;;;;;;;5004654;28;20049;-64
2022/05/04 09:16:26;;;;;;;5.00;1.60;;;;;;;;;;5016497;28;20033;-64
2022/05/04 09:18:53;;;;;;;10.75;2.88;;;;;;;;;;5002438;28;20521;-63
2022/05/04 09:21:21;;;;;;;7.53;2.20;;;;;;;;;;5013190;28;20509;-64
2022/05/04 09:23:49;;;;;;;9.57;2.22;;;;;;;;;;5020334;28;20133;-63
2022/05/04 09:26:16;;;;;;;12.85;2.60;;;;;;;;;;4998102;28;20045;-63
2022/05/04 09:28:42;;;;;;;11.40;2.63;;;;;;;;;;5015097;28;20049;-63
2022/05/04 09:31:08;;;;;;;12.50;2.53;;;;;;;;;;5014310;28;20053;-64
2022/05/04 09:33:35;;;;;;;14.02;3.00;;;;;;;;;;5017816;28;20049;-63
2022/05/04 09:36:03;;;;;;;12.52;2.50;;;;;;;;;;5003273;28;20049;-64
2022/05/04 09:46:48;;;;;;;12.27;2.70;;;;;;;;;;5016460;28;20090;-64
2022/05/04 09:49:15;;;;;;;11.15;2.40;;;;;;;;;;5005935;28;20339;-63
2022/05/04 09:51:44;;;;;;;11.95;2.38;;;;;;;;;;5016287;28;20484;-64
2022/05/04 09:54:17;;;;;;;10.07;2.17;;;;;;;;;;5015552;28;20049;-64
2022/05/04 09:56:46;;;;;;;11.35;2.53;;;;;;;;;;5017999;28;20042;-64
2022/05/04 09:59:13;;;;;;;10.43;2.38;;;;;;;;;;5012727;28;20045;-64
2022/05/04 10:01:40;;;;;;;14.90;2.92;;;;;;;;;;5014865;28;20049;-64
2022/05/04 10:04:06;;;;;;;8.80;2.35;;;;;;;;;;5019383;28;20219;-64
2022/05/04 10:06:33;;;;;;;12.57;2.45;;;;;;;;;;5017138;28;20048;-64
2022/05/04 10:09:00;;;;;;;10.50;2.15;;;;;;;;;;5018546;28;20464;-63
2022/05/04 10:11:27;;;;;;;10.60;2.55;;;;;;;;;;5013197;28;20107;-64
2022/05/04 10:13:54;;;;;;;14.90;2.78;;;;;;;;;;5000119;28;20084;-63
2022/05/04 10:16:21;;;;;;;10.63;2.40;;;;;;;;;;5018783;28;20389;-64
2022/05/04 10:18:48;;;;;;;7.25;1.80;;;;;;;;;;5013685;28;20504;-63
2022/05/04 10:21:15;;;;;;;8.73;2.17;;;;;;;;;;5019839;28;20120;-76
2022/05/04 10:23:44;;;;;;;8.27;2.00;;;;;;;;;;4999941;28;20038;-67
2022/05/04 10:26:12;;;;;;;14.25;2.95;;;;;;;;;;5022125;28;20049;-67
2022/05/04 10:28:41;;;;;;;12.77;2.45;;;;;;;;;;5025879;28;20053;-66
2022/05/04 10:31:11;;;;;;;17.63;2.83;;;;;;;;;;5028718;28;20447;-71
2022/05/04 10:33:37;;;;;;;10.65;3.03;;;;;;;;;;4999997;28;20046;-81
2022/05/04 10:36:15;;;;;;;9.30;2.42;;;;;;;;;;5012303;28;20060;-80
2022/05/04 10:38:43;;;;;;;13.73;2.90;;;;;;;;;;5021310;28;20393;-76
2022/05/04 10:41:10;;;;;;;10.50;2.65;;;;;;;;;;5008252;28;20391;-77
2022/05/04 10:43:38;;;;;;;11.13;2.15;;;;;;;;;;5016783;28;20064;-77
2022/05/04 10:46:07;;;;;;;11.30;2.50;;;;;;;;;;5022434;28;20049;-80
2022/05/04 10:48:33;;;;;;;9.70;2.22;;;;;;;;;;5020478;28;20041;-83
2022/05/04 10:51:03;;;;;;;12.63;2.92;;;;;;;;;;5020603;28;20075;-84
2022/05/04 10:53:29;;;;;;;7.82;2.45;;;;;;;;;;5016597;28;20041;-83
2022/05/04 10:56:03;;;;;;;10.82;2.45;;;;;;;;;;5011503;28;20048;-84
2022/05/04 10:58:39;;;;;;;8.23;2.22;;;;;;;;;;5013604;28;20124;-84
2022/05/04 11:01:06;;;;;;;10.98;2.58;;;;;;;;;;5004825;28;20128;-84
2022/05/04 11:03:34;;;;;;;8.32;2.75;;;;;;;;;;5021503;28;20485;-83
2022/05/04 11:06:08;;;;;;;6.80;2.22;;;;;;;;;;5014179;28;20056;-83
2022/05/04 11:08:36;;;;;;;11.75;2.50;;;;;;;;;;5008355;28;20033;-83
2022/05/04 11:11:02;;;;;;;9.38;2.63;;;;;;;;;;5004106;28;20118;-84
2022/05/04 11:13:30;;;;;;;11.63;2.70;;;;;;;;;;4995765;28;20026;-83
2022/05/04 11:15:59;;;;;;;10.23;3.28;;;;;;;;;;5015762;28;20056;-83
2022/05/04 11:18:27;;;;;;;8.02;2.42;;;;;;;;;;5020077;28;20394;-82
2022/05/04 11:20:54;;;;;;;8.07;2.53;;;;;;;;;;5015467;28;20041;-80
2022/05/04 11:23:24;;;;;;;10.13;2.58;;;;;;;;;;5007844;28;20042;-80
2022/05/04 11:25:51;;;;;;;9.50;2.30;;;;;;;;;;5003295;28;20446;-81
2022/05/04 11:28:19;;;;;;;7.47;2.50;;;;;;;;;;5005261;28;20040;-75
2022/05/04 11:30:45;;;;;;;10.80;2.72;;;;;;;;;;5000760;28;20128;-79
2022/05/04 11:33:13;;;;;;;11.93;3.00;;;;;;;;;;5003543;28;20101;-77
2022/05/04 11:35:42;;;;;;;9.60;2.67;;;;;;;;;;4987429;28;20052;-73
2022/05/04 11:38:08;;;;;;;8.27;2.80;;;;;;;;;;5020060;28;20206;-70
2022/05/04 11:40:34;;;;;;;12.95;2.90;;;;;;;;;;5003697;28;20053;-65
2022/05/04 11:43:00;;;;;;;8.93;2.67;;;;;;;;;;5018547;28;20077;-74
2022/05/04 11:45:27;;;;;;;12.68;2.83;;;;;;;;;;4988004;28;20080;-65
2022/05/04 11:47:53;;;;;;;7.30;3.13;;;;;;;;;;5020535;28;20046;-64
2022/05/04 11:50:19;;;;;;;9.32;2.58;;;;;;;;;;5019835;28;20175;-65
2022/05/04 11:52:45;;;;;;;12.10;3.00;;;;;;;;;;5003984;28;20389;-65
2022/05/04 11:55:13;;;;;;;8.95;2.50;;;;;;;;;;5019070;28;20034;-65
2022/05/04 11:57:41;;;;;;;9.07;3.33;;;;;;;;;;5019874;28;20391;-65
2022/05/04 12:00:14;;;;;;;7.47;3.22;;;;;;;;;;5022736;28;20396;-65
2022/05/04 12:02:40;;;;;;;11.40;3.38;;;;;;;;;;5021835;28;20079;-65
2022/05/04 12:05:07;;;;;;;10.25;2.70;;;;;;;;;;5016561;28;20123;-65
2022/05/04 12:07:33;;;;;;;10.00;2.50;;;;;;;;;;5019409;28;20052;-65
2022/05/04 12:10:00;;;;;;;11.60;2.80;;;;;;;;;;5019146;28;20196;-65
2022/05/04 12:12:26;;;;;;;10.10;3.42;;;;;;;;;;5021043;28;20093;-65
2022/05/04 12:14:53;;;;;;;9.98;3.03;;;;;;;;;;5017384;28;20038;-65
2022/05/04 12:17:24;;;;;;;9.80;3.28;;;;;;;;;;5019370;28;20057;-65
2022/05/04 12:19:51;;;;;;;9.90;2.83;;;;;;;;;;5023087;28;20037;-65
2022/05/04 12:22:17;;;;;;;9.70;3.03;;;;;;;;;;5017757;28;20508;-65
2022/05/04 12:24:43;;;;;;;10.57;3.00;;;;;;;;;;5024638;28;20048;-64
2022/05/04 12:27:10;;;;;;;13.65;3.65;;;;;;;;;;5027977;28;20052;-65
2022/05/04 12:35:21;;;;;;;11.95;3.47;;;;;;;;;;5013232;28;20566;-64
2022/05/04 12:37:52;;;;;;;12.43;3.50;;;;;;;;;;5009236;28;20131;-65
2022/05/04 12:40:19;;;;;;;9.70;3.58;;;;;;;;;;5003781;28;20385;-65
2022/05/04 12:42:46;;;;;;;9.25;3.13;;;;;;;;;;5016764;28;20503;-65
2022/05/04 12:45:17;;;;;;;12.48;3.72;;;;;;;;;;5016972;28;20481;-65
2022/05/04 12:47:44;;;;;;;12.23;3.78;;;;;;;;;;4998793;28;20503;-64
2022/05/04 12:50:10;;;;;;;9.25;3.03;;;;;;;;;;5012725;28;20037;-65
2022/05/04 12:52:38;;;;;;;10.32;3.22;;;;;;;;;;5001902;28;20048;-65
2022/05/04 12:55:05;;;;;;;8.90;3.03;;;;;;;;;;5008413;28;21990;-65
2022/05/04 12:57:31;;;;;;;11.60;3.95;;;;;;;;;;5015153;28;20049;-64
2022/05/04 12:59:57;;;;;;;7.38;3.38;;;;;;;;;;5001046;28;20060;-65
2022/05/04 13:02:24;;;;;;;12.77;3.75;;;;;;;;;;5020681;28;20057;-65
2022/05/04 13:04:50;;;;;;;9.75;3.35;;;;;;;;;;5014298;28;20062;-65
2022/05/04 13:07:16;;;;;;;12.07;3.50;;;;;;;;;;5017617;28;20042;-63
2022/05/04 13:09:42;;;;;;;12.30;3.10;;;;;;;;;;5016851;28;20049;-65
2022/05/04 13:12:11;;;;;;;12.68;3.47;;;;;;;;;;5016217;28;20042;-65
2022/05/04 13:14:38;;;;;;;12.38;3.55;;;;;;;;;;5022324;28;20042;-65
2022/05/04 13:17:05;;;;;;;8.25;3.28;;;;;;;;;;5022695;28;20056;-65
2022/05/04 13:19:31;;;;;;;11.65;3.33;;;;;;;;;;4995797;28;20148;-65
2022/05/04 13:21:57;;;;;;;5.93;2.47;;;;;;;;;;5017138;28;20045;-66
2022/05/04 13:24:24;;;;;;;10.45;3.58;;;;;;;;;;5015346;28;20069;-66
2022/05/04 13:26:50;;;;;;;7.45;3.00;;;;;;;;;;5001799;28;20045;-66
2022/05/04 13:29:16;;;;;;;9.70;3.45;;;;;;;;;;5017282;28;20048;-66
2022/05/04 13:31:42;;;;;;;10.07;3.58;;;;;;;;;;5016945;28;20054;-65
2022/05/04 13:34:08;;;;;;;9.05;3.03;;;;;;;;;;5008150;28;20049;-66
2022/05/04 13:36:34;;;;;;;9.38;3.10;;;;;;;;;;4999736;28;20145;-66
2022/05/04 13:39:01;;;;;;;9.38;3.08;;;;;;;;;;5011823;28;20096;-66
2022/05/04 13:41:27;;;;;;;13.30;3.50;;;;;;;;;;4991882;28;20046;-66
2022/05/04 13:43:53;;;;;;;11.85;3.47;;;;;;;;;;5015090;28;20052;-65
2022/05/04 13:46:19;;;;;;;10.27;3.60;;;;;;;;;;5012438;28;20042;-66
2022/05/04 13:48:46;;;;;;;9.15;2.72;;;;;;;;;;5008637;28;20481;-65
2022/05/04 13:53:57;;;;;;;10.25;2.92;;;;;;;;;;5015778;28;20128;-66
2022/05/04 13:56:23;;;;;;;10.15;3.30;;;;;;;;;;5018033;28;20045;-66
2022/05/04 13:58:49;;;;;;;10.63;3.55;;;;;;;;;;5024674;28;20430;-65
2022/05/04 14:01:15;;;;;;;9.00;3.35;;;;;;;;;;5017699;28;20045;-66
2022/05/04 14:03:42;;;;;;;8.32;3.33;;;;;;;;;;5024737;28;20037;-66
2022/05/04 14:06:08;;;;;;;10.82;3.38;;;;;;;;;;5010682;28;21443;-66
2022/05/04 14:08:34;;;;;;;10.65;3.50;;;;;;;;;;5021471;28;20045;-66
2022/05/04 14:11:01;;;;;;;8.70;3.17;;;;;;;;;;4997956;28;20042;-66
2022/05/04 14:13:27;;;;;;;8.45;2.90;;;;;;;;;;5014540;28;20045;-66
2022/05/04 14:15:56;;;;;;;9.27;3.40;;;;;;;;;;5030086;28;20052;-65
2022/05/04 14:18:23;;;;;;;9.57;3.67;;;;;;;;;;5020629;28;20038;-66
2022/05/04 14:20:49;;;;;;;9.10;3.60;;;;;;;;;;5009445;28;20042;-66
2022/05/04 14:23:15;;;;;;;9.38;3.00;;;;;;;;;;5005557;28;20209;-66
2022/05/04 14:25:42;;;;;;;11.65;3.08;;;;;;;;;;5024834;28;20397;-66
2022/05/04 14:28:08;;;;;;;8.95;3.40;;;;;;;;;;5003865;28;20049;-66
2022/05/04 14:30:34;;;;;;;9.38;3.03;;;;;;;;;;5003483;28;20045;-65
2022/05/04 14:33:01;;;;;;;10.77;3.15;;;;;;;;;;5021826;28;20381;-65
2022/05/04 14:35:27;;;;;;;10.00;3.28;;;;;;;;;;5021241;28;20587;-66
2022/05/04 14:37:53;;;;;;;9.73;3.42;;;;;;;;;;5021066;28;20417;-66
2022/05/04 14:40:20;;;;;;;13.13;3.80;;;;;;;;;;5021965;28;20367;-65
2022/05/04 14:42:47;;;;;;;8.43;3.20;;;;;;;;;;5023213;28;20453;-65
2022/05/04 14:45:13;;;;;;;12.88;3.78;;;;;;;;;;4997913;28;20150;-65
2022/05/04 14:47:39;;;;;;;13.27;3.40;;;;;;;;;;5020964;28;20492;-66
2022/05/04 14:50:06;;;;;;;11.02;2.90;;;;;;;;;;5022760;28;20053;-65
2022/05/04 14:52:32;;;;;;;10.85;3.70;;;;;;;;;;5019962;28;20042;-65
2022/05/04 14:54:58;;;;;;;8.68;3.30;;;;;;;;;;5020521;28;20041;-65
2022/05/04 14:57:24;;;;;;;10.43;3.70;;;;;;;;;;4999582;28;20457;-65
2022/05/04 14:59:50;;;;;;;10.10;3.60;;;;;;;;;;5016546;28;20069;-65
2022/05/04 15:02:17;;;;;;;13.15;3.92;;;;;;;;;;5005946;28;20490;-66
2022/05/04 15:05:01;;;;;;;16.05;3.38;;;;;;;;;;5021803;28;20081;-66
2022/05/04 15:07:27;;;;;;;10.77;3.60;;;;;;;;;;5025333;28;20077;-65
2022/05/04 15:09:53;;;;;;;11.52;3.60;;;;;;;;;;5016363;28;20049;-65
2022/05/04 15:12:20;;;;;;;11.00;3.33;;;;;;;;;;5017408;28;20052;-65